Time;durP1;ratioP1;P1;durP2;ratioP2;P2;SDS_P1;SDS_P2;PMS_P1;PMS_P2;Temp;Humidity;BMP_temperature;BMP_pressure;BME280_temperature;BME280_humidity;BME280_pressure;Samples;Min_cycle;Max_cycle;Signal;HPM_P1;HPM_P2
2021/08/01 00:01:54;;;;;;;6.00;3.78;;;;;;;;;;5036256;28;20060;-56
2021/08/01 00:04:21;;;;;;;7.32;3.60;;;;;;;;;;5034616;28;20071;-56
2021/08/01 00:06:48;;;;;;;6.22;3.55;;;;;;;;;;5046114;28;20045;-54
2021/08/01 00:09:16;;;;;;;5.25;3.45;;;;;;;;;;5033950;28;20049;-55
2021/08/01 00:11:42;;;;;;;7.72;3.42;;;;;;;;;;5042054;28;20552;-55
2021/08/01 00:14:09;;;;;;;5.43;3.42;;;;;;;;;;5050168;28;20584;-56
2021/08/01 00:16:36;;;;;;;4.93;3.80;;;;;;;;;;5037862;28;20057;-55
2021/08/01 00:19:03;;;;;;;6.05;3.40;;;;;;;;;;5031086;28;20037;-57
2021/08/01 00:21:31;;;;;;;7.03;3.10;;;;;;;;;;5031619;28;20068;-57
2021/08/01 00:23:58;;;;;;;5.75;3.72;;;;;;;;;;5030697;28;20069;-56
2021/08/01 00:26:24;;;;;;;4.40;3.38;;;;;;;;;;5031300;28;20588;-57
2021/08/01 00:28:51;;;;;;;6.68;3.50;;;;;;;;;;5030909;28;20179;-57
2021/08/01 00:31:18;;;;;;;7.18;3.25;;;;;;;;;;5031550;28;20141;-56
2021/08/01 00:33:45;;;;;;;6.65;3.75;;;;;;;;;;5032440;28;20057;-55
2021/08/01 00:36:11;;;;;;;4.97;3.30;;;;;;;;;;5050091;28;20041;-56
2021/08/01 00:38:38;;;;;;;7.40;4.10;;;;;;;;;;5045728;28;20040;-57
2021/08/01 00:41:05;;;;;;;7.18;3.90;;;;;;;;;;5030928;28;20672;-56
2021/08/01 00:43:32;;;;;;;7.97;3.92;;;;;;;;;;5043155;28;20366;-57
2021/08/01 00:45:59;;;;;;;7.10;4.03;;;;;;;;;;5046870;28;20124;-54
2021/08/01 00:48:26;;;;;;;9.18;4.72;;;;;;;;;;5030629;28;20045;-56
2021/08/01 00:50:54;;;;;;;10.73;5.05;;;;;;;;;;5031305;28;20076;-53
2021/08/01 00:53:21;;;;;;;9.20;4.40;;;;;;;;;;5032048;28;20050;-55
2021/08/01 00:55:49;;;;;;;5.13;3.40;;;;;;;;;;5041021;28;20045;-56
2021/08/01 00:58:17;;;;;;;8.65;4.53;;;;;;;;;;5044273;28;20068;-56
2021/08/01 01:03:25;;;;;;;8.43;4.82;;;;;;;;;;5042237;28;20116;-50
2021/08/01 01:05:58;;;;;;;8.88;4.07;;;;;;;;;;5046491;28;20037;-50
2021/08/01 01:08:30;;;;;;;5.97;3.90;;;;;;;;;;5047004;28;20068;-51
2021/08/01 01:11:19;;;;;;;6.20;4.45;;;;;;;;;;5039868;28;20131;-51
2021/08/01 01:13:49;;;;;;;6.35;3.65;;;;;;;;;;5032684;28;20041;-54
2021/08/01 01:16:18;;;;;;;7.70;4.00;;;;;;;;;;5030947;28;20034;-53
2021/08/01 01:18:50;;;;;;;7.45;4.50;;;;;;;;;;5037778;28;20056;-52
2021/08/01 01:21:35;;;;;;;8.43;4.70;;;;;;;;;;5030925;28;20052;-50
2021/08/01 01:24:14;;;;;;;7.07;3.80;;;;;;;;;;5036568;28;20048;-50
2021/08/01 01:27:13;;;;;;;7.72;4.28;;;;;;;;;;5047749;28;20635;-50
2021/08/01 01:29:41;;;;;;;9.10;3.70;;;;;;;;;;5043679;28;20114;-51
2021/08/01 01:32:16;;;;;;;6.85;3.70;;;;;;;;;;5038014;28;20081;-51
2021/08/01 01:35:00;;;;;;;6.65;4.43;;;;;;;;;;5030858;28;20107;-50
2021/08/01 01:37:30;;;;;;;7.13;4.63;;;;;;;;;;5041574;28;20090;-50
2021/08/01 01:39:58;;;;;;;8.48;4.35;;;;;;;;;;5043509;28;20117;-51
2021/08/01 01:43:01;;;;;;;9.85;4.97;;;;;;;;;;5043553;28;20057;-52
2021/08/01 01:45:29;;;;;;;7.97;5.63;;;;;;;;;;5029499;28;20088;-54
2021/08/01 01:47:57;;;;;;;11.32;5.18;;;;;;;;;;5030228;28;20415;-51
2021/08/01 01:50:23;;;;;;;7.55;4.00;;;;;;;;;;5042295;28;20499;-53
2021/08/01 01:52:54;;;;;;;5.93;4.03;;;;;;;;;;5046896;28;20044;-50
2021/08/01 01:55:23;;;;;;;8.38;4.80;;;;;;;;;;5046862;28;20073;-51
2021/08/01 01:57:54;;;;;;;7.05;5.03;;;;;;;;;;5041114;28;20068;-54
2021/08/01 02:00:21;;;;;;;8.07;4.78;;;;;;;;;;5032997;28;20049;-49
2021/08/01 02:03:02;;;;;;;6.22;4.50;;;;;;;;;;5038822;28;20489;-50
2021/08/01 02:05:49;;;;;;;6.95;4.72;;;;;;;;;;5016860;28;20037;-48
2021/08/01 02:08:42;;;;;;;7.93;5.07;;;;;;;;;;5033952;28;20041;-52
2021/08/01 02:11:43;;;;;;;8.60;5.28;;;;;;;;;;5042204;28;20460;-50
2021/08/01 02:14:20;;;;;;;7.15;4.80;;;;;;;;;;5041780;28;20037;-51
2021/08/01 02:16:49;;;;;;;10.88;4.78;;;;;;;;;;5046946;28;20060;-52
2021/08/01 02:19:17;;;;;;;7.60;5.20;;;;;;;;;;5042591;28;20045;-53
2021/08/01 02:21:49;;;;;;;6.00;4.55;;;;;;;;;;5049648;28;20120;-51
2021/08/01 02:24:18;;;;;;;7.68;5.20;;;;;;;;;;5043613;28;20574;-53
2021/08/01 02:26:45;;;;;;;10.63;5.25;;;;;;;;;;5032507;28;20433;-52
2021/08/01 02:29:13;;;;;;;6.85;5.10;;;;;;;;;;5027730;28;20136;-54
2021/08/01 02:31:42;;;;;;;5.70;5.07;;;;;;;;;;5033855;28;20116;-50
2021/08/01 02:34:09;;;;;;;8.98;5.30;;;;;;;;;;5046792;28;20057;-54
2021/08/01 02:36:37;;;;;;;6.20;4.90;;;;;;;;;;5053464;28;20069;-54
2021/08/01 02:39:05;;;;;;;6.85;4.72;;;;;;;;;;5044738;28;20073;-50
2021/08/01 02:41:36;;;;;;;6.55;4.72;;;;;;;;;;5039390;28;20051;-52
2021/08/01 02:44:10;;;;;;;7.57;5.32;;;;;;;;;;5049971;28;20041;-50
2021/08/01 02:46:38;;;;;;;6.45;4.88;;;;;;;;;;5053242;28;20128;-49
2021/08/01 02:49:06;;;;;;;8.88;5.85;;;;;;;;;;5044180;28;20056;-53
2021/08/01 02:51:33;;;;;;;9.05;5.82;;;;;;;;;;5033272;28;20099;-50
2021/08/01 02:54:01;;;;;;;7.43;4.75;;;;;;;;;;5032750;28;20043;-51
2021/08/01 02:56:33;;;;;;;7.53;4.88;;;;;;;;;;5041085;28;20119;-50
2021/08/01 02:59:02;;;;;;;7.60;5.15;;;;;;;;;;5035332;28;20399;-51
2021/08/01 03:01:30;;;;;;;8.93;5.57;;;;;;;;;;5033580;28;20423;-51
2021/08/01 03:04:01;;;;;;;9.43;5.70;;;;;;;;;;5046918;28;20040;-52
2021/08/01 03:06:32;;;;;;;7.88;6.38;;;;;;;;;;5053175;28;20116;-50
2021/08/01 03:09:04;;;;;;;6.53;5.10;;;;;;;;;;5044754;28;20049;-52
2021/08/01 03:11:34;;;;;;;8.82;5.30;;;;;;;;;;5031593;28;20302;-53
2021/08/01 03:14:03;;;;;;;6.97;5.43;;;;;;;;;;5031853;28;20044;-52
2021/08/01 03:16:30;;;;;;;8.00;5.65;;;;;;;;;;5032854;28;20073;-51
2021/08/01 03:18:58;;;;;;;9.40;5.93;;;;;;;;;;5015164;28;20045;-50
2021/08/01 03:21:27;;;;;;;7.88;6.18;;;;;;;;;;5032691;28;20090;-53
2021/08/01 03:24:12;;;;;;;9.65;6.10;;;;;;;;;;5046903;28;20037;-52
2021/08/01 03:26:52;;;;;;;9.90;5.22;;;;;;;;;;5030392;28;20072;-54
2021/08/01 03:29:19;;;;;;;9.15;5.28;;;;;;;;;;5030104;28;20156;-50
2021/08/01 03:31:46;;;;;;;9.15;5.25;;;;;;;;;;5032709;28;20072;-53
2021/08/01 03:34:12;;;;;;;7.15;5.22;;;;;;;;;;5049703;28;20041;-52
2021/08/01 03:36:39;;;;;;;9.20;5.60;;;;;;;;;;5041301;28;20053;-52
2021/08/01 03:39:09;;;;;;;13.23;6.22;;;;;;;;;;5046135;28;20525;-47
2021/08/01 03:41:46;;;;;;;3.90;3.05;;;;;;;;;;5048633;28;20036;-50
2021/08/01 03:44:18;;;;;;;3.42;2.47;;;;;;;;;;5052033;28;20052;-51
2021/08/01 03:46:44;;;;;;;4.47;3.17;;;;;;;;;;5048825;28;20041;-50
2021/08/01 03:49:11;;;;;;;4.93;2.65;;;;;;;;;;5044314;28;20072;-50
2021/08/01 03:51:38;;;;;;;3.10;2.30;;;;;;;;;;5039159;28;20521;-49
2021/08/01 03:54:05;;;;;;;5.05;1.95;;;;;;;;;;5047093;28;20140;-52
2021/08/01 03:56:32;;;;;;;1.88;1.40;;;;;;;;;;5039798;28;20112;-50
2021/08/01 03:58:58;;;;;;;1.63;1.30;;;;;;;;;;5044297;28;20037;-52
2021/08/01 04:01:26;;;;;;;2.30;1.60;;;;;;;;;;5048665;28;20041;-54
2021/08/01 04:03:53;;;;;;;2.30;1.65;;;;;;;;;;5034215;28;20063;-53
2021/08/01 04:06:20;;;;;;;3.13;2.10;;;;;;;;;;5043028;28;20128;-52
2021/08/01 04:08:47;;;;;;;4.20;2.67;;;;;;;;;;5043832;28;20111;-55
2021/08/01 04:11:13;;;;;;;3.70;2.65;;;;;;;;;;5036739;28;20145;-49
2021/08/01 04:13:41;;;;;;;4.15;2.83;;;;;;;;;;5051557;28;20439;-53
2021/08/01 04:16:08;;;;;;;3.50;2.70;;;;;;;;;;5028492;28;20041;-51
2021/08/01 04:18:35;;;;;;;4.15;2.90;;;;;;;;;;5030258;28;20041;-54
2021/08/01 04:21:07;;;;;;;5.13;3.10;;;;;;;;;;5036218;28;20037;-53
2021/08/01 04:23:35;;;;;;;4.00;3.00;;;;;;;;;;5049123;28;20566;-54
2021/08/01 04:26:02;;;;;;;4.13;3.22;;;;;;;;;;5036142;28;20045;-53
2021/08/01 04:28:29;;;;;;;3.85;3.45;;;;;;;;;;5043416;28;20057;-51
2021/08/01 04:30:57;;;;;;;4.03;2.92;;;;;;;;;;5034562;28;20474;-54
2021/08/01 04:33:24;;;;;;;4.22;3.15;;;;;;;;;;5050200;28;20041;-52
2021/08/01 04:35:51;;;;;;;3.53;2.40;;;;;;;;;;5031530;28;20124;-53
2021/08/01 04:38:18;;;;;;;2.95;2.53;;;;;;;;;;5030411;28;20108;-55
2021/08/01 04:40:45;;;;;;;3.97;2.50;;;;;;;;;;5030655;28;20041;-52
2021/08/01 04:43:12;;;;;;;3.42;2.63;;;;;;;;;;5035294;28;20049;-52
2021/08/01 04:45:39;;;;;;;3.03;2.60;;;;;;;;;;5048300;28;20044;-49
2021/08/01 04:48:06;;;;;;;3.88;2.63;;;;;;;;;;5047141;28;20499;-49
2021/08/01 04:50:33;;;;;;;4.60;2.63;;;;;;;;;;5048260;28;20048;-50
2021/08/01 04:52:59;;;;;;;3.78;2.90;;;;;;;;;;5039710;28;20132;-48
2021/08/01 04:55:26;;;;;;;2.88;2.47;;;;;;;;;;5032003;28;20502;-51
2021/08/01 04:57:53;;;;;;;4.15;2.67;;;;;;;;;;5039615;28;20061;-54
2021/08/01 05:00:19;;;;;;;3.45;2.50;;;;;;;;;;5036597;28;20116;-55
2021/08/01 05:02:46;;;;;;;4.28;2.30;;;;;;;;;;5047552;28;20129;-53
2021/08/01 05:05:13;;;;;;;3.25;2.13;;;;;;;;;;5044003;28;20494;-52
2021/08/01 05:07:40;;;;;;;4.63;2.40;;;;;;;;;;5042561;28;20033;-49
2021/08/01 05:10:07;;;;;;;5.15;2.45;;;;;;;;;;5035625;28;20120;-51
2021/08/01 05:12:33;;;;;;;3.22;2.15;;;;;;;;;;5032893;28;20041;-51
2021/08/01 05:15:03;;;;;;;3.08;2.13;;;;;;;;;;5034392;28;20036;-48
2021/08/01 05:17:30;;;;;;;4.32;1.88;;;;;;;;;;5043615;28;20495;-50
2021/08/01 05:19:57;;;;;;;2.85;2.00;;;;;;;;;;5034414;28;20783;-48
2021/08/01 05:22:23;;;;;;;3.70;2.40;;;;;;;;;;5035454;28;20033;-49
2021/08/01 05:24:50;;;;;;;2.88;2.00;;;;;;;;;;5042376;28;20133;-49
2021/08/01 05:27:17;;;;;;;4.32;2.17;;;;;;;;;;5039107;28;20045;-51
2021/08/01 05:29:44;;;;;;;2.55;1.88;;;;;;;;;;5034598;28;20125;-48
2021/08/01 05:32:10;;;;;;;2.75;2.00;;;;;;;;;;5033194;28;20049;-55
2021/08/01 05:34:37;;;;;;;3.28;2.42;;;;;;;;;;5033662;28;20492;-52
2021/08/01 05:37:04;;;;;;;2.85;2.10;;;;;;;;;;5033390;28;20056;-54
2021/08/01 05:39:37;;;;;;;3.05;1.90;;;;;;;;;;5034167;28;20041;-47
2021/08/01 05:42:04;;;;;;;3.10;2.10;;;;;;;;;;5033883;28;20125;-51
2021/08/01 05:44:34;;;;;;;6.63;2.13;;;;;;;;;;5044061;28;20132;-54
2021/08/01 05:47:06;;;;;;;3.20;2.38;;;;;;;;;;5032781;28;20525;-53
2021/08/01 05:49:33;;;;;;;4.63;2.40;;;;;;;;;;5034150;28;20487;-50
2021/08/01 05:52:01;;;;;;;3.53;2.20;;;;;;;;;;5044048;28;20401;-48
2021/08/01 05:54:29;;;;;;;4.43;2.30;;;;;;;;;;5049276;28;20083;-55
2021/08/01 05:56:55;;;;;;;4.18;2.97;;;;;;;;;;5034291;28;20077;-52
2021/08/01 05:59:22;;;;;;;2.75;2.33;;;;;;;;;;5033506;28;20128;-52
2021/08/01 06:01:49;;;;;;;3.17;2.60;;;;;;;;;;5032821;28;20042;-49
2021/08/01 06:04:16;;;;;;;3.08;2.38;;;;;;;;;;5034178;28;20125;-49
2021/08/01 06:06:42;;;;;;;3.15;2.10;;;;;;;;;;5050185;28;20051;-52
2021/08/01 06:09:09;;;;;;;2.97;2.45;;;;;;;;;;5050600;28;20041;-49
2021/08/01 06:11:36;;;;;;;3.58;2.63;;;;;;;;;;5042884;28;20152;-53
2021/08/01 06:14:03;;;;;;;3.40;2.53;;;;;;;;;;5052866;28;20057;-52
2021/08/01 06:16:30;;;;;;;3.88;2.50;;;;;;;;;;5027578;28;20046;-49
2021/08/01 06:19:06;;;;;;;4.80;3.00;;;;;;;;;;5033516;28;20406;-51
2021/08/01 06:21:33;;;;;;;3.45;2.83;;;;;;;;;;5043516;28;20029;-53
2021/08/01 06:24:00;;;;;;;4.90;2.38;;;;;;;;;;5033928;28;20037;-54
2021/08/01 06:26:26;;;;;;;4.88;2.42;;;;;;;;;;5043380;28;20048;-50
2021/08/01 06:28:53;;;;;;;3.33;2.42;;;;;;;;;;5016214;28;20399;-49
2021/08/01 06:31:20;;;;;;;2.72;2.10;;;;;;;;;;5032939;28;20045;-53
2021/08/01 06:33:47;;;;;;;4.15;2.65;;;;;;;;;;5033604;28;20464;-53
2021/08/01 06:36:14;;;;;;;4.00;2.58;;;;;;;;;;5032995;28;20037;-49
2021/08/01 06:38:42;;;;;;;3.17;2.53;;;;;;;;;;5036101;28;20464;-51
2021/08/01 06:41:08;;;;;;;3.35;2.58;;;;;;;;;;5041408;28;20067;-53
2021/08/01 06:43:36;;;;;;;3.80;2.80;;;;;;;;;;5033813;28;20118;-53
2021/08/01 06:46:02;;;;;;;4.18;2.55;;;;;;;;;;5053158;28;20072;-48
2021/08/01 06:48:29;;;;;;;3.30;2.53;;;;;;;;;;5047458;28;20083;-52
2021/08/01 06:50:56;;;;;;;3.88;2.83;;;;;;;;;;5030474;28;20045;-48
2021/08/01 06:53:23;;;;;;;3.42;2.65;;;;;;;;;;5033518;28;20033;-56
2021/08/01 06:55:50;;;;;;;4.60;2.70;;;;;;;;;;5035424;28;20049;-52
2021/08/01 06:58:18;;;;;;;3.35;2.30;;;;;;;;;;5052984;28;20126;-48
2021/08/01 07:00:48;;;;;;;4.43;2.90;;;;;;;;;;5043432;28;20073;-53
2021/08/01 07:03:15;;;;;;;3.80;2.60;;;;;;;;;;5033692;28;20454;-51
2021/08/01 07:05:55;;;;;;;4.55;3.03;;;;;;;;;;5033429;28;20418;-52
2021/08/01 07:08:21;;;;;;;4.18;2.30;;;;;;;;;;5032884;28;20119;-56
2021/08/01 07:10:48;;;;;;;4.43;3.10;;;;;;;;;;5032663;28;20076;-50
2021/08/01 07:13:15;;;;;;;3.78;2.90;;;;;;;;;;5033178;28;20121;-51
2021/08/01 07:15:42;;;;;;;5.22;2.67;;;;;;;;;;5032942;28;20050;-52
2021/08/01 07:18:08;;;;;;;3.53;2.13;;;;;;;;;;5043702;28;20559;-50
2021/08/01 07:20:36;;;;;;;3.22;2.50;;;;;;;;;;5036565;28;20060;-52
2021/08/01 07:23:06;;;;;;;3.30;2.70;;;;;;;;;;5033952;28;20491;-51
2021/08/01 07:25:32;;;;;;;3.47;2.67;;;;;;;;;;5035700;28;20037;-52
2021/08/01 07:27:59;;;;;;;4.07;2.55;;;;;;;;;;5035084;28;20483;-60
2021/08/01 07:30:26;;;;;;;4.22;2.72;;;;;;;;;;5032715;28;20129;-51
2021/08/01 07:32:53;;;;;;;3.42;2.50;;;;;;;;;;5032672;28;20428;-52
2021/08/01 07:35:20;;;;;;;10.05;3.13;;;;;;;;;;5030750;28;20049;-48
2021/08/01 07:37:47;;;;;;;5.00;2.72;;;;;;;;;;5044950;28;20080;-51
2021/08/01 07:40:13;;;;;;;4.82;2.50;;;;;;;;;;5037586;28;20491;-52
2021/08/01 07:42:40;;;;;;;3.25;2.30;;;;;;;;;;5050826;28;20044;-50
2021/08/01 07:45:31;;;;;;;3.80;2.63;;;;;;;;;;5038073;28;20063;-51
2021/08/01 07:47:57;;;;;;;3.42;2.60;;;;;;;;;;5041474;28;20044;-51
2021/08/01 07:50:24;;;;;;;4.72;2.58;;;;;;;;;;5049659;28;20048;-50
2021/08/01 07:52:51;;;;;;;4.63;2.70;;;;;;;;;;5042797;28;20095;-54
2021/08/01 07:55:18;;;;;;;3.40;2.47;;;;;;;;;;5036984;28;20139;-50
2021/08/01 07:57:45;;;;;;;5.10;2.95;;;;;;;;;;5055869;28;20455;-52
2021/08/01 08:00:13;;;;;;;3.85;2.55;;;;;;;;;;5038196;28;20128;-52
2021/08/01 08:02:42;;;;;;;3.53;2.70;;;;;;;;;;5030081;28;20246;-53
2021/08/01 08:05:10;;;;;;;3.92;2.55;;;;;;;;;;5036403;28;20037;-57
2021/08/01 08:07:37;;;;;;;4.30;2.95;;;;;;;;;;5049090;28;20045;-54
2021/08/01 08:10:04;;;;;;;3.47;2.42;;;;;;;;;;5041673;28;20116;-53
2021/08/01 08:12:31;;;;;;;5.53;2.50;;;;;;;;;;5041311;28;20494;-52
2021/08/01 08:14:58;;;;;;;4.25;2.65;;;;;;;;;;5034960;28;20048;-56
2021/08/01 08:17:25;;;;;;;4.03;2.50;;;;;;;;;;5034767;28;20065;-54
2021/08/01 08:19:52;;;;;;;3.83;2.80;;;;;;;;;;5039131;28;20172;-50
2021/08/01 08:22:19;;;;;;;4.40;3.10;;;;;;;;;;5035429;28;20033;-51
2021/08/01 08:24:46;;;;;;;4.78;2.60;;;;;;;;;;5041439;28;20055;-51
2021/08/01 08:27:12;;;;;;;5.35;3.40;;;;;;;;;;5042674;28;20061;-56
2021/08/01 08:29:39;;;;;;;5.07;2.40;;;;;;;;;;5042142;28;20044;-54
2021/08/01 08:32:06;;;;;;;4.75;2.95;;;;;;;;;;5042512;28;20049;-52
2021/08/01 08:34:33;;;;;;;4.68;3.20;;;;;;;;;;5041411;28;20053;-54
2021/08/01 08:37:00;;;;;;;3.63;2.20;;;;;;;;;;5044406;28;20458;-51
2021/08/01 08:39:30;;;;;;;5.55;2.70;;;;;;;;;;5044408;28;20051;-55
2021/08/01 08:41:59;;;;;;;4.47;2.85;;;;;;;;;;5043762;28;20124;-55
2021/08/01 08:44:27;;;;;;;5.07;2.83;;;;;;;;;;5050923;28;20040;-57
2021/08/01 08:46:54;;;;;;;3.72;2.45;;;;;;;;;;5029121;28;20045;-57
2021/08/01 08:49:22;;;;;;;4.68;3.20;;;;;;;;;;5033079;28;20103;-51
2021/08/01 08:51:50;;;;;;;4.28;3.40;;;;;;;;;;5047176;28;20099;-52
2021/08/01 08:54:20;;;;;;;5.68;3.08;;;;;;;;;;5041050;28;20093;-54
2021/08/01 08:56:47;;;;;;;4.85;3.10;;;;;;;;;;5046983;28;20041;-54
2021/08/01 08:59:17;;;;;;;5.00;3.53;;;;;;;;;;5039396;28;20038;-54
2021/08/01 09:01:43;;;;;;;5.97;3.45;;;;;;;;;;5046311;28;20036;-53
2021/08/01 09:04:10;;;;;;;5.50;3.00;;;;;;;;;;5037267;28;20047;-54
2021/08/01 09:06:37;;;;;;;4.78;3.03;;;;;;;;;;5042020;28;20445;-52
2021/08/01 09:09:04;;;;;;;5.40;3.10;;;;;;;;;;5042465;28;20119;-55
2021/08/01 09:11:31;;;;;;;4.35;2.53;;;;;;;;;;5032521;28;20037;-52
2021/08/01 09:13:58;;;;;;;4.53;3.25;;;;;;;;;;5049068;28;20082;-51
2021/08/01 09:16:51;;;;;;;4.90;3.58;;;;;;;;;;5032152;28;20045;-54
2021/08/01 09:19:30;;;;;;;5.20;3.13;;;;;;;;;;5040882;28;20073;-54
2021/08/01 09:22:12;;;;;;;4.82;2.80;;;;;;;;;;5042215;28;20046;-54
2021/08/01 09:24:39;;;;;;;4.75;3.05;;;;;;;;;;5047410;28;20044;-51
2021/08/01 09:27:06;;;;;;;4.47;2.83;;;;;;;;;;5043738;28;20124;-51
2021/08/01 09:29:33;;;;;;;5.20;2.85;;;;;;;;;;5036620;28;20539;-53
2021/08/01 09:32:00;;;;;;;4.95;3.00;;;;;;;;;;5040940;28;20407;-53
2021/08/01 09:34:28;;;;;;;4.95;3.10;;;;;;;;;;5040064;28;20083;-53
2021/08/01 09:36:56;;;;;;;4.88;2.80;;;;;;;;;;5044051;28;20128;-53
2021/08/01 09:39:23;;;;;;;4.78;2.88;;;;;;;;;;5036745;28;20414;-50
2021/08/01 09:42:00;;;;;;;4.85;3.00;;;;;;;;;;5040750;28;20475;-52
2021/08/01 09:44:27;;;;;;;4.55;2.95;;;;;;;;;;5034422;28;20091;-50
2021/08/01 09:46:56;;;;;;;5.57;2.80;;;;;;;;;;5036824;28;20065;-51
2021/08/01 09:49:25;;;;;;;5.32;3.88;;;;;;;;;;5047245;28;20132;-49
2021/08/01 09:51:53;;;;;;;5.28;2.33;;;;;;;;;;5040499;28;20044;-51
2021/08/01 09:54:21;;;;;;;3.92;2.80;;;;;;;;;;5041117;28;20115;-52
2021/08/01 09:57:06;;;;;;;4.90;2.85;;;;;;;;;;5042423;28;20045;-50
2021/08/01 09:59:33;;;;;;;4.28;2.70;;;;;;;;;;5039959;28;20491;-51
2021/08/01 10:02:02;;;;;;;5.03;2.63;;;;;;;;;;5039941;28;20044;-52
2021/08/01 10:04:29;;;;;;;5.38;2.70;;;;;;;;;;5040094;28;20042;-53
2021/08/01 10:07:00;;;;;;;4.25;2.58;;;;;;;;;;5037834;28;20033;-53
2021/08/01 10:09:27;;;;;;;4.22;2.50;;;;;;;;;;5037904;28;20044;-54
2021/08/01 10:11:54;;;;;;;3.90;2.05;;;;;;;;;;5043963;28;20049;-51
2021/08/01 10:14:21;;;;;;;3.47;2.28;;;;;;;;;;5045530;28;20050;-51
2021/08/01 10:16:48;;;;;;;4.43;2.60;;;;;;;;;;5042267;28;20037;-50
2021/08/01 10:19:15;;;;;;;4.18;2.75;;;;;;;;;;5039872;28;20498;-51
2021/08/01 10:21:43;;;;;;;3.33;2.78;;;;;;;;;;5045791;28;20156;-52
2021/08/01 10:24:11;;;;;;;4.47;2.33;;;;;;;;;;5043343;28;20450;-50
2021/08/01 10:26:40;;;;;;;3.63;2.47;;;;;;;;;;5046225;28;20131;-51
2021/08/01 10:29:10;;;;;;;4.28;2.80;;;;;;;;;;5044458;28;20129;-52
2021/08/01 10:31:43;;;;;;;4.03;2.65;;;;;;;;;;5043449;28;20053;-52
2021/08/01 10:34:15;;;;;;;3.95;2.65;;;;;;;;;;5038740;28;20076;-54
2021/08/01 10:36:47;;;;;;;5.47;3.08;;;;;;;;;;5043168;28;20029;-50
2021/08/01 10:39:15;;;;;;;4.03;3.08;;;;;;;;;;5042101;28;20164;-52
2021/08/01 10:41:42;;;;;;;3.97;2.63;;;;;;;;;;5048339;28;20457;-53
2021/08/01 10:44:09;;;;;;;4.30;3.10;;;;;;;;;;5045143;28;20052;-52
2021/08/01 10:46:39;;;;;;;4.88;2.85;;;;;;;;;;5047804;28;20041;-56
2021/08/01 10:49:10;;;;;;;4.13;2.70;;;;;;;;;;5041506;28;20099;-49
2021/08/01 10:51:38;;;;;;;4.30;2.72;;;;;;;;;;5041867;28;20073;-49
2021/08/01 10:54:20;;;;;;;3.70;2.70;;;;;;;;;;5042589;28;20052;-51
2021/08/01 10:56:47;;;;;;;5.70;3.40;;;;;;;;;;5042986;28;20160;-50
2021/08/01 10:59:32;;;;;;;4.40;2.70;;;;;;;;;;5045446;28;20094;-53
2021/08/01 11:02:10;;;;;;;4.35;3.20;;;;;;;;;;5039515;28;20065;-54
2021/08/01 11:04:38;;;;;;;4.15;3.00;;;;;;;;;;5040444;28;20067;-53
2021/08/01 11:07:05;;;;;;;4.75;3.03;;;;;;;;;;5048805;28;20103;-51
2021/08/01 11:09:32;;;;;;;3.80;3.00;;;;;;;;;;5041413;28;20049;-50
2021/08/01 11:12:19;;;;;;;3.95;3.10;;;;;;;;;;5035902;28;20041;-52
2021/08/01 11:14:49;;;;;;;4.85;3.53;;;;;;;;;;5032513;28;20128;-51
2021/08/01 11:17:20;;;;;;;5.00;3.47;;;;;;;;;;5035272;28;20033;-53
2021/08/01 11:19:47;;;;;;;4.80;3.50;;;;;;;;;;5032603;28;20472;-51
2021/08/01 11:22:32;;;;;;;4.28;3.25;;;;;;;;;;5043886;28;20047;-53
2021/08/01 11:25:18;;;;;;;4.55;3.20;;;;;;;;;;5047463;28;20116;-54
2021/08/01 11:28:11;;;;;;;3.65;3.03;;;;;;;;;;5043780;28;20072;-50
2021/08/01 11:30:50;;;;;;;6.18;3.67;;;;;;;;;;5034525;28;20046;-54
2021/08/01 11:33:29;;;;;;;7.03;4.22;;;;;;;;;;5033100;28;20092;-54
2021/08/01 11:36:17;;;;;;;5.38;2.78;;;;;;;;;;5044324;28;20069;-55
2021/08/01 11:38:44;;;;;;;4.30;3.03;;;;;;;;;;5052313;28;20047;-53
2021/08/01 11:41:11;;;;;;;6.07;2.95;;;;;;;;;;5041831;28;20080;-54
2021/08/01 11:43:37;;;;;;;5.13;3.00;;;;;;;;;;5041984;28;20127;-50
2021/08/01 11:46:06;;;;;;;5.15;3.08;;;;;;;;;;5041517;28;20122;-51
2021/08/01 11:48:34;;;;;;;4.35;2.55;;;;;;;;;;5048057;28;20053;-52
2021/08/01 11:51:04;;;;;;;5.13;3.53;;;;;;;;;;5049424;28;20540;-52
2021/08/01 11:53:32;;;;;;;5.07;3.50;;;;;;;;;;5031969;28;20072;-55
2021/08/01 11:56:00;;;;;;;6.68;4.18;;;;;;;;;;5038568;28;20124;-52
2021/08/01 11:58:30;;;;;;;6.50;4.00;;;;;;;;;;5050131;28;20048;-50
2021/08/01 12:00:58;;;;;;;6.57;4.00;;;;;;;;;;5043938;28;20037;-51
2021/08/01 12:03:27;;;;;;;5.75;4.00;;;;;;;;;;5031600;28;20037;-51
2021/08/01 12:05:54;;;;;;;5.88;4.05;;;;;;;;;;5032454;28;20043;-51
2021/08/01 12:08:27;;;;;;;6.55;3.70;;;;;;;;;;5029888;28;20041;-53
2021/08/01 12:11:09;;;;;;;8.90;3.67;;;;;;;;;;5041791;28;20094;-53
2021/08/01 12:13:36;;;;;;;5.90;3.90;;;;;;;;;;5039593;28;20040;-52
2021/08/01 12:16:13;;;;;;;4.32;3.30;;;;;;;;;;5037003;28;20136;-51
2021/08/01 12:18:40;;;;;;;4.18;3.35;;;;;;;;;;5039851;28;20045;-52
2021/08/01 12:21:39;;;;;;;5.95;3.25;;;;;;;;;;5039240;28;20136;-51
2021/08/01 12:24:06;;;;;;;4.15;3.35;;;;;;;;;;5030241;28;20092;-52
2021/08/01 12:26:34;;;;;;;4.60;3.40;;;;;;;;;;5039699;28;20767;-52
2021/08/01 12:29:04;;;;;;;5.53;3.30;;;;;;;;;;5049751;28;20230;-49
2021/08/01 12:31:31;;;;;;;4.32;2.88;;;;;;;;;;5031358;28;20427;-51
2021/08/01 12:33:58;;;;;;;5.85;3.10;;;;;;;;;;5035264;28;20041;-52
2021/08/01 12:36:25;;;;;;;5.63;3.13;;;;;;;;;;5049941;28;20072;-50
2021/08/01 12:38:52;;;;;;;6.13;4.10;;;;;;;;;;5038319;28;20049;-48
2021/08/01 12:41:22;;;;;;;5.35;3.78;;;;;;;;;;5051245;28;20041;-48
2021/08/01 12:43:49;;;;;;;9.60;4.00;;;;;;;;;;5051284;28;20068;-52
2021/08/01 12:46:17;;;;;;;5.95;3.33;;;;;;;;;;5049613;28;20534;-48
2021/08/01 12:48:47;;;;;;;4.15;3.33;;;;;;;;;;5044663;28;20044;-50
2021/08/01 12:51:14;;;;;;;4.13;3.03;;;;;;;;;;5039096;28;20050;-51
2021/08/01 12:53:41;;;;;;;6.88;4.72;;;;;;;;;;5030883;28;20041;-53
2021/08/01 12:56:13;;;;;;;5.85;4.03;;;;;;;;;;5040027;28;20060;-51
2021/08/01 12:58:41;;;;;;;5.13;3.80;;;;;;;;;;5045170;28;20124;-53
2021/08/01 13:01:08;;;;;;;5.80;4.22;;;;;;;;;;5044212;28;20037;-50
2021/08/01 13:03:40;;;;;;;5.28;4.07;;;;;;;;;;5050895;28;20047;-53
2021/08/01 13:06:08;;;;;;;5.53;3.80;;;;;;;;;;5039608;28;20067;-50
2021/08/01 13:08:38;;;;;;;5.40;3.78;;;;;;;;;;5042388;28;20144;-52
2021/08/01 13:11:10;;;;;;;5.90;4.13;;;;;;;;;;5039151;28;20076;-51
2021/08/01 13:13:49;;;;;;;6.45;4.22;;;;;;;;;;5054227;28;20144;-52
2021/08/01 13:16:15;;;;;;;6.97;4.95;;;;;;;;;;5030713;28;20087;-50
2021/08/01 13:18:42;;;;;;;6.95;5.50;;;;;;;;;;5038609;28;20128;-52
2021/08/01 13:21:14;;;;;;;5.40;3.75;;;;;;;;;;5035327;28;20446;-53
2021/08/01 13:23:42;;;;;;;5.93;4.35;;;;;;;;;;5029287;28;20042;-53
2021/08/01 13:26:20;;;;;;;5.82;4.55;;;;;;;;;;5039785;28;20100;-53
2021/08/01 13:28:49;;;;;;;5.00;3.58;;;;;;;;;;5037946;28;20092;-53
2021/08/01 13:31:16;;;;;;;4.68;3.08;;;;;;;;;;5036016;28;20053;-51
2021/08/01 13:33:53;;;;;;;6.60;2.67;;;;;;;;;;5031358;28;20107;-53
2021/08/01 13:36:20;;;;;;;5.07;3.70;;;;;;;;;;5031037;28;20506;-50
2021/08/01 13:38:57;;;;;;;5.32;3.70;;;;;;;;;;5038451;28;20045;-50
2021/08/01 13:41:24;;;;;;;6.72;3.97;;;;;;;;;;5047424;28;20203;-51
2021/08/01 13:44:06;;;;;;;5.10;3.80;;;;;;;;;;5046842;28;20037;-51
2021/08/01 13:46:33;;;;;;;6.68;4.20;;;;;;;;;;5053483;28;20234;-51
2021/08/01 13:49:00;;;;;;;4.82;3.60;;;;;;;;;;5056231;28;20060;-51
2021/08/01 13:51:27;;;;;;;5.72;4.30;;;;;;;;;;5045702;28;20455;-54
2021/08/01 13:53:54;;;;;;;5.88;3.90;;;;;;;;;;5042222;28;20065;-54
2021/08/01 13:56:21;;;;;;;4.78;3.80;;;;;;;;;;5041852;28;20049;-54
2021/08/01 13:58:47;;;;;;;5.78;3.78;;;;;;;;;;5037942;28;20120;-55
2021/08/01 14:01:14;;;;;;;5.80;3.80;;;;;;;;;;5039571;28;20128;-52
2021/08/01 14:03:44;;;;;;;5.68;3.85;;;;;;;;;;5048408;28;20033;-52
2021/08/01 14:06:10;;;;;;;6.40;4.43;;;;;;;;;;5042281;28;20081;-53
2021/08/01 14:08:37;;;;;;;5.53;4.03;;;;;;;;;;5039693;28;20059;-51
2021/08/01 14:11:04;;;;;;;5.90;3.63;;;;;;;;;;5046752;28;20044;-54
2021/08/01 14:13:31;;;;;;;5.20;3.55;;;;;;;;;;5047691;28;20061;-53
2021/08/01 14:15:58;;;;;;;5.88;4.20;;;;;;;;;;5040720;28;20096;-53
2021/08/01 14:18:24;;;;;;;4.97;4.15;;;;;;;;;;5044562;28;20044;-52
2021/08/01 14:20:51;;;;;;;6.03;4.43;;;;;;;;;;5050253;28;20112;-52
2021/08/01 14:23:18;;;;;;;4.95;3.55;;;;;;;;;;5043819;28;20041;-52
2021/08/01 14:25:46;;;;;;;5.95;3.90;;;;;;;;;;5046438;28;20116;-53
2021/08/01 14:28:14;;;;;;;5.35;4.53;;;;;;;;;;5048422;28;20387;-52
2021/08/01 14:30:40;;;;;;;5.97;3.95;;;;;;;;;;5038616;28;20045;-53
2021/08/01 14:33:08;;;;;;;6.88;4.65;;;;;;;;;;5048231;28;20073;-49
2021/08/01 14:35:35;;;;;;;5.95;4.38;;;;;;;;;;5037265;28;20357;-47
2021/08/01 14:38:02;;;;;;;7.18;4.97;;;;;;;;;;5025427;28;20080;-50
2021/08/01 14:40:31;;;;;;;6.00;4.93;;;;;;;;;;5034654;28;20048;-51
2021/08/01 14:42:58;;;;;;;6.25;4.57;;;;;;;;;;5047913;28;20119;-52
2021/08/01 14:45:25;;;;;;;6.25;4.53;;;;;;;;;;5047140;28;20077;-52
2021/08/01 14:47:57;;;;;;;6.25;4.13;;;;;;;;;;5051158;28;20037;-54
2021/08/01 14:50:44;;;;;;;5.55;4.20;;;;;;;;;;5040272;28;20514;-48
2021/08/01 14:53:12;;;;;;;5.22;4.22;;;;;;;;;;5033243;28;20565;-48
2021/08/01 14:55:50;;;;;;;5.40;3.60;;;;;;;;;;5034789;28;20112;-51
2021/08/01 14:58:38;;;;;;;5.07;3.83;;;;;;;;;;5037807;28;20065;-49
2021/08/01 15:01:09;;;;;;;4.40;3.65;;;;;;;;;;5046078;28;20048;-52